Time;durP1;ratioP1;P1;durP2;ratioP2;P2;SDS_P1;SDS_P2;PMS_P1;PMS_P2;Temp;Humidity;BMP_temperature;BMP_pressure;BME280_temperature;BME280_humidity;BME280_pressure;Samples;Min_cycle;Max_cycle;Signal;HPM_P1;HPM_P2
2023/03/25 00:01:24;;;;;;;22.60;13.60;;;;;;;9.77;64.24;100346.42;110271;1237;61319;-67
2023/03/25 00:03:53;;;;;;;22.70;13.00;;;;;;;9.79;64.54;100350.29;110143;1238;73525;-68
2023/03/25 00:06:22;;;;;;;22.60;12.70;;;;;;;9.79;63.53;100351.12;110298;1237;72153;-69
2023/03/25 00:08:50;;;;;;;23.50;12.50;;;;;;;9.81;63.79;100348.73;110286;1236;62252;-68
2023/03/25 00:11:19;;;;;;;23.00;13.50;;;;;;;9.82;63.71;100346.77;110281;1237;63765;-68
2023/03/25 00:13:48;;;;;;;21.50;14.00;;;;;;;9.78;63.29;100344.45;110164;1241;58245;-67
2023/03/25 00:16:17;;;;;;;21.40;13.90;;;;;;;9.74;63.30;100338.84;110173;1237;58204;-66
2023/03/25 00:18:46;;;;;;;25.50;15.00;;;;;;;9.71;64.57;100335.40;110287;1237;74299;-67
2023/03/25 00:21:17;;;;;;;23.60;14.20;;;;;;;9.70;62.89;100332.20;110280;1236;60930;-68
2023/03/25 00:23:46;;;;;;;24.50;14.40;;;;;;;9.73;63.87;100334.08;110174;1236;59928;-68
2023/03/25 00:26:15;;;;;;;23.40;14.30;;;;;;;9.80;64.79;100328.61;110255;1238;72006;-68
2023/03/25 00:28:44;;;;;;;24.90;14.90;;;;;;;9.84;64.65;100327.31;110282;1238;61701;-68
2023/03/25 00:31:14;;;;;;;24.80;14.50;;;;;;;9.99;64.88;100330.00;110160;1237;60788;-68
2023/03/25 00:33:43;;;;;;;24.30;15.50;;;;;;;9.98;64.76;100321.04;110199;1235;75209;-68
2023/03/25 00:36:13;;;;;;;24.90;15.40;;;;;;;9.94;64.38;100311.42;110303;1235;72936;-68
2023/03/25 00:38:44;;;;;;;30.10;15.90;;;;;;;9.85;64.46;100306.40;110168;1235;71318;-68
2023/03/25 00:41:24;;;;;;;27.10;16.60;;;;;;;9.76;64.99;100304.43;110412;1235;63753;-67
2023/03/25 00:43:56;;;;;;;23.70;15.70;;;;;;;9.67;65.39;100300.42;109951;1239;58894;-69
2023/03/25 00:46:29;;;;;;;23.90;15.40;;;;;;;9.59;65.61;100302.39;110303;1235;60417;-69
2023/03/25 00:48:59;;;;;;;23.70;15.20;;;;;;;9.47;66.21;100296.88;110158;1235;63791;-68
2023/03/25 00:51:30;;;;;;;24.20;14.90;;;;;;;9.39;66.91;100298.54;110172;1238;61680;-68
2023/03/25 00:53:59;;;;;;;21.10;13.60;;;;;;;9.30;66.39;100299.02;109920;1234;69667;-67
2023/03/25 00:56:30;;;;;;;22.40;13.60;;;;;;;9.23;65.31;100298.80;110307;1235;62377;-67
2023/03/25 00:58:59;;;;;;;21.30;13.80;;;;;;;9.16;64.76;100301.42;110135;1239;59965;-67
2023/03/25 01:01:28;;;;;;;21.70;14.20;;;;;;;9.08;67.27;100297.47;110308;1238;61648;-69
2023/03/25 01:03:58;;;;;;;22.30;14.60;;;;;;;9.08;68.12;100295.39;109944;1235;65852;-68
2023/03/25 01:06:33;;;;;;;25.60;14.60;;;;;;;9.06;68.06;100292.10;110139;1235;74009;-68
2023/03/25 01:09:07;;;;;;;21.10;14.20;;;;;;;9.01;68.45;100294.48;110148;1235;60594;-68
2023/03/25 01:11:37;;;;;;;24.10;13.30;;;;;;;9.01;68.60;100291.77;110289;1238;72826;-69
2023/03/25 01:14:12;;;;;;;24.00;14.10;;;;;;;8.98;68.63;100285.11;110095;1239;62982;-68
2023/03/25 01:16:42;;;;;;;21.50;13.60;;;;;;;8.98;69.26;100282.03;110351;1235;58292;-68
2023/03/25 01:19:13;;;;;;;21.10;13.00;;;;;;;9.05;69.22;100280.01;110299;1235;74288;-68
2023/03/25 01:21:44;;;;;;;25.90;13.90;;;;;;;9.05;68.57;100277.05;110120;1235;72707;-67
2023/03/25 01:24:14;;;;;;;25.40;14.00;;;;;;;9.03;68.62;100274.23;110159;1234;70062;-68
2023/03/25 01:26:44;;;;;;;23.30;14.40;;;;;;;8.98;68.88;100277.33;110263;1235;73552;-68
2023/03/25 01:29:17;;;;;;;21.50;13.80;;;;;;;8.94;69.17;100272.63;110131;1238;58444;-68
2023/03/25 01:31:47;;;;;;;24.80;14.10;;;;;;;8.95;69.74;100275.48;110313;1235;57712;-69
2023/03/25 01:34:16;;;;;;;24.90;14.80;;;;;;;9.03;70.33;100271.59;110153;1235;72857;-69
2023/03/25 01:36:48;;;;;;;27.40;14.00;;;;;;;9.09;69.70;100270.50;110351;1234;72751;-69
2023/03/25 01:39:18;;;;;;;23.20;14.60;;;;;;;9.07;69.17;100270.14;110144;1235;70088;-69
2023/03/25 01:41:49;;;;;;;23.70;14.60;;;;;;;9.07;69.46;100266.95;110060;1235;74577;-67
2023/03/25 01:44:19;;;;;;;23.10;14.60;;;;;;;9.08;69.41;100264.66;110050;1239;60805;-66
2023/03/25 01:46:51;;;;;;;23.40;14.70;;;;;;;9.07;68.41;100261.47;110402;1235;58201;-68
2023/03/25 01:49:46;;;;;;;25.20;14.90;;;;;;;9.04;68.78;100261.84;110386;1235;73620;-68
2023/03/25 01:52:26;;;;;;;26.90;15.50;;;;;;;8.97;69.52;100271.67;110293;1235;72659;-68
2023/03/25 01:54:57;;;;;;;27.50;14.80;;;;;;;8.97;68.75;100270.29;110313;1235;60929;-67
2023/03/25 01:57:29;;;;;;;24.50;15.10;;;;;;;8.93;70.34;100262.94;110274;1235;63724;-67
2023/03/25 01:59:58;;;;;;;25.80;14.50;;;;;;;8.90;69.77;100266.85;110238;1238;58223;-68
2023/03/25 02:02:33;;;;;;;27.30;14.80;;;;;;;8.88;70.36;100268.55;110265;1235;58268;-68
2023/03/25 02:05:29;;;;;;;23.90;15.20;;;;;;;8.90;71.07;100261.94;110327;1235;75115;-68
2023/03/25 02:08:02;;;;;;;25.10;14.90;;;;;;;8.89;70.93;100258.56;110204;1236;62120;-68
2023/03/25 02:10:32;;;;;;;24.50;14.90;;;;;;;8.81;70.87;100256.17;109889;1235;70555;-68
2023/03/25 02:13:02;;;;;;;25.90;14.70;;;;;;;8.70;71.18;100256.59;109907;1238;73285;-68
2023/03/25 02:15:50;;;;;;;22.00;13.80;;;;;;;8.61;72.07;100250.65;109940;1235;58327;-67
2023/03/25 02:18:35;;;;;;;22.40;13.90;;;;;;;8.62;72.67;100246.46;110078;1235;60449;-66
2023/03/25 02:21:59;;;;;;;21.80;13.40;;;;;;;8.64;72.44;100238.67;109934;1234;75259;-67
2023/03/25 02:25:00;;;;;;;;;;;;;;;8.64;72.53;100239.52;110064;1235;72605;-66
2023/03/25 02:27:51;;;;;;;23.00;13.80;;;;;;;8.60;72.14;100225.77;110162;1235;59611;-68
2023/03/25 02:30:43;;;;;;;24.70;15.10;;;;;;;8.58;73.10;100222.29;110039;1235;73751;-68
2023/03/25 02:33:30;;;;;;;24.70;15.40;;;;;;;8.60;73.52;100220.04;110054;1238;61040;-67
2023/03/25 02:36:55;;;;;;;25.90;16.10;;;;;;;8.62;71.64;100220.95;110064;1235;61583;-67
2023/03/25 02:39:39;;;;;;;25.90;15.50;;;;;;;8.70;73.89;100220.50;109912;1235;74214;-66
2023/03/25 02:42:40;;;;;;;25.90;15.00;;;;;;;8.68;71.22;100214.42;110077;1235;72456;-67
2023/03/25 02:45:26;;;;;;;21.90;14.20;;;;;;;8.48;72.77;100210.45;110031;1235;70248;-67
2023/03/25 02:48:14;;;;;;;22.30;13.70;;;;;;;8.43;74.10;100209.12;109936;1234;63620;-67
2023/03/25 02:50:52;;;;;;;23.40;13.90;;;;;;;8.56;74.38;100205.22;110068;1236;62065;-67
2023/03/25 02:53:35;;;;;;;24.60;14.40;;;;;;;8.60;73.59;100202.30;110092;1238;57763;-67
2023/03/25 02:56:09;;;;;;;22.30;14.40;;;;;;;8.60;73.04;100201.77;110093;1236;74997;-67
2023/03/25 02:58:40;;;;;;;28.30;15.90;;;;;;;8.60;73.33;100195.38;109993;1237;72681;-68
2023/03/25 03:01:13;;;;;;;23.60;14.70;;;;;;;8.59;72.89;100196.70;110106;1238;60611;-68
2023/03/25 03:03:42;;;;;;;26.60;14.70;;;;;;;8.58;73.49;100188.46;109954;1237;73875;-67
2023/03/25 03:06:17;;;;;;;22.70;14.80;;;;;;;8.60;73.86;100188.95;110085;1238;58396;-66
2023/03/25 03:08:50;;;;;;;26.60;15.30;;;;;;;8.62;73.69;100184.83;110010;1240;57649;-67
2023/03/25 03:11:33;;;;;;;;;;;;;;;8.73;74.22;100187.34;110125;1235;63223;-67
2023/03/25 03:14:20;;;;;;;25.90;15.30;;;;;;;8.83;73.65;100190.62;110090;1236;72050;-68
2023/03/25 03:17:17;;;;;;;22.90;14.80;;;;;;;8.88;74.23;100199.58;110170;1237;70184;-67
2023/03/25 03:20:07;;;;;;;24.00;15.00;;;;;;;8.95;73.90;100196.80;110258;1235;74167;-66
2023/03/25 03:22:52;;;;;;;25.40;16.20;;;;;;;8.98;73.91;100196.73;110249;1237;58315;-67
2023/03/25 03:25:34;;;;;;;26.80;15.90;;;;;;;9.01;73.61;100194.94;110119;1238;57743;-66
2023/03/25 03:28:45;;;;;;;30.30;16.50;;;;;;;9.08;74.51;100195.15;110134;1238;63370;-67
2023/03/25 03:31:40;;;;;;;22.90;15.70;;;;;;;9.18;74.82;100191.64;110167;1236;71359;-67
2023/03/25 03:35:00;;;;;;;27.10;16.00;;;;;;;9.34;74.01;100190.09;110266;1236;70958;-67
2023/03/25 03:37:43;;;;;;;25.60;16.10;;;;;;;9.38;74.02;100186.63;110204;1236;72441;-68
2023/03/25 03:40:17;;;;;;;;;;;;;;;9.39;73.77;100193.20;110218;1238;60812;-67
2023/03/25 03:43:12;;;;;;;28.50;16.40;;;;;;;9.46;73.76;100203.91;110248;1237;61732;-67
2023/03/25 03:45:57;;;;;;;27.60;16.60;;;;;;;9.45;73.95;100202.25;110246;1239;64197;-68
2023/03/25 03:48:37;;;;;;;27.00;16.00;;;;;;;9.45;73.80;100198.96;110233;1237;60947;-67
2023/03/25 03:51:17;;;;;;;29.00;16.30;;;;;;;9.53;73.46;100199.76;110236;1238;69955;-66
2023/03/25 03:54:15;;;;;;;25.30;15.70;;;;;;;9.50;73.63;100200.84;110242;1238;73153;-67
2023/03/25 03:57:00;;;;;;;28.00;16.00;;;;;;;9.47;73.86;100199.73;110069;1239;60710;-68
2023/03/25 04:00:09;;;;;;;29.10;17.20;;;;;;;9.43;73.98;100198.77;110251;1238;58102;-66
2023/03/25 04:02:50;;;;;;;25.90;17.10;;;;;;;9.45;74.21;100194.32;110323;1238;63019;-66
2023/03/25 04:05:21;;;;;;;30.60;17.40;;;;;;;9.42;74.36;100192.44;110305;1237;72099;-66
2023/03/25 04:08:03;;;;;;;27.60;17.30;;;;;;;9.38;74.18;100195.36;110275;1236;69998;-65
2023/03/25 04:10:44;;;;;;;27.80;15.80;;;;;;;9.34;74.48;100188.88;110283;1238;74229;-66
2023/03/25 04:13:16;;;;;;;26.20;15.90;;;;;;;9.28;74.43;100186.71;110100;1237;61293;-66
2023/03/25 04:15:45;;;;;;;26.00;16.30;;;;;;;9.34;74.49;100194.26;110221;1238;61848;-66
2023/03/25 04:18:14;;;;;;;28.80;15.80;;;;;;;9.36;74.37;100190.51;110251;1236;63388;-64
2023/03/25 04:20:48;;;;;;;24.10;15.90;;;;;;;9.37;74.37;100183.45;110275;1237;61812;-66
2023/03/25 04:23:17;;;;;;;27.20;16.70;;;;;;;9.35;74.23;100185.19;110288;1237;59288;-65
2023/03/25 04:25:51;;;;;;;26.90;16.70;;;;;;;9.23;74.79;100188.48;110284;1237;73804;-67
2023/03/25 04:28:22;;;;;;;27.10;18.00;;;;;;;9.16;75.41;100187.95;110272;1236;63741;-66
2023/03/25 04:30:59;;;;;;;25.90;16.10;;;;;;;9.14;75.21;100185.84;110283;1235;59340;-67
2023/03/25 04:33:30;;;;;;;31.90;17.50;;;;;;;9.14;74.89;100184.81;110318;1236;63047;-66
2023/03/25 04:36:00;;;;;;;33.90;17.00;;;;;;;9.11;75.48;100187.84;110324;1238;72402;-67
2023/03/25 04:38:29;;;;;;;31.90;16.80;;;;;;;9.12;75.81;100189.82;110307;1236;70998;-66
2023/03/25 04:40:59;;;;;;;25.10;16.30;;;;;;;9.13;75.92;100192.16;110323;1236;63739;-66
2023/03/25 04:43:27;;;;;;;26.90;17.50;;;;;;;9.13;76.16;100197.38;110292;1238;60340;-66
2023/03/25 04:45:58;;;;;;;30.10;17.70;;;;;;;9.26;75.28;100203.20;110359;1236;58291;-65
2023/03/25 04:48:34;;;;;;;29.10;17.70;;;;;;;9.36;74.58;100202.48;110338;1237;74333;-66
2023/03/25 04:51:03;;;;;;;27.90;17.70;;;;;;;9.38;74.09;100205.11;110178;1236;73400;-66
2023/03/25 04:53:32;;;;;;;31.30;17.70;;;;;;;9.40;74.16;100206.70;110409;1235;60321;-67
2023/03/25 04:56:00;;;;;;;28.50;17.40;;;;;;;9.45;74.16;100205.61;110404;1238;73852;-66
2023/03/25 04:58:30;;;;;;;27.80;16.80;;;;;;;9.51;74.20;100202.38;110234;1238;58366;-66
2023/03/25 05:01:04;;;;;;;30.40;17.60;;;;;;;9.62;73.87;100204.63;110362;1238;61003;-66
2023/03/25 05:03:34;;;;;;;32.50;18.00;;;;;;;9.73;73.46;100199.42;110365;1235;74003;-65
2023/03/25 05:06:03;;;;;;;33.90;17.80;;;;;;;9.86;73.55;100196.02;110351;1237;72956;-64
2023/03/25 05:08:32;;;;;;;28.80;17.40;;;;;;;9.98;72.92;100197.35;110348;1235;70787;-65
2023/03/25 05:11:02;;;;;;;29.50;18.00;;;;;;;10.10;72.42;100197.98;110345;1236;72945;-66
2023/03/25 05:13:30;;;;;;;28.40;17.40;;;;;;;10.17;72.27;100197.63;110202;1237;61992;-66
2023/03/25 05:16:00;;;;;;;33.00;17.80;;;;;;;10.32;71.90;100196.80;110234;1238;58192;-66
2023/03/25 05:18:29;;;;;;;30.40;16.80;;;;;;;10.47;71.08;100194.02;110234;1237;74316;-67
2023/03/25 05:20:59;;;;;;;29.30;17.90;;;;;;;10.48;70.85;100191.02;110125;1237;63456;-67
2023/03/25 05:23:30;;;;;;;28.30;17.50;;;;;;;10.61;70.52;100188.39;110268;1238;59255;-66
2023/03/25 05:25:59;;;;;;;26.40;17.40;;;;;;;10.74;70.10;100194.07;110235;1237;65673;-66
2023/03/25 05:28:28;;;;;;;30.00;17.40;;;;;;;10.82;69.65;100197.09;110096;1236;58236;-65
2023/03/25 05:30:57;;;;;;;32.90;17.40;;;;;;;10.91;69.40;100195.50;110079;1236;61134;-66
2023/03/25 05:33:26;;;;;;;31.70;16.90;;;;;;;11.02;68.96;100193.55;110247;1235;73067;-65
2023/03/25 05:35:56;;;;;;;29.90;17.10;;;;;;;11.13;68.37;100193.20;110270;1235;71246;-65
2023/03/25 05:38:24;;;;;;;30.70;17.50;;;;;;;11.11;68.06;100190.57;110124;1239;71110;-65
2023/03/25 05:40:53;;;;;;;33.30;18.10;;;;;;;11.17;68.15;100189.17;110362;1235;63064;-67
2023/03/25 05:43:22;;;;;;;29.60;16.80;;;;;;;11.21;68.04;100188.54;110342;1237;58352;-66
2023/03/25 05:45:51;;;;;;;29.60;16.30;;;;;;;11.28;67.75;100189.17;110394;1235;57748;-68
2023/03/25 05:48:21;;;;;;;27.20;16.50;;;;;;;11.30;67.28;100187.89;110375;1235;74349;-66
2023/03/25 05:50:49;;;;;;;28.80;16.90;;;;;;;11.31;67.12;100185.89;110315;1236;71784;-66
2023/03/25 05:53:19;;;;;;;32.00;18.70;;;;;;;11.32;66.89;100185.80;110304;1235;60343;-67
2023/03/25 05:55:50;;;;;;;30.70;17.50;;;;;;;11.33;67.32;100183.81;110307;1236;72540;-67
2023/03/25 05:58:20;;;;;;;30.20;18.70;;;;;;;11.35;67.11;100191.49;110275;1235;61708;-68
2023/03/25 06:00:50;;;;;;;29.60;17.00;;;;;;;11.31;66.81;100190.95;110062;1237;61601;-66
2023/03/25 06:03:20;;;;;;;30.30;17.00;;;;;;;11.32;67.03;100189.45;110079;1235;64208;-67
2023/03/25 06:05:48;;;;;;;29.10;17.90;;;;;;;11.32;67.26;100188.12;110231;1235;72103;-67
2023/03/25 06:08:24;;;;;;;26.30;17.40;;;;;;;11.31;67.54;100190.14;110310;1235;71134;-68
2023/03/25 06:11:00;;;;;;;42.90;17.60;;;;;;;11.35;67.37;100188.91;110149;1234;74212;-67
2023/03/25 06:13:28;;;;;;;31.60;16.50;;;;;;;11.33;67.43;100189.56;109925;1235;62688;-66
2023/03/25 06:15:58;;;;;;;29.30;16.70;;;;;;;11.31;67.81;100191.69;110219;1234;58602;-68
2023/03/25 06:18:27;;;;;;;29.10;16.90;;;;;;;11.30;68.10;100193.02;110187;1235;63757;-67
2023/03/25 06:20:58;;;;;;;27.40;16.90;;;;;;;11.34;68.16;100191.96;110172;1235;61699;-67
2023/03/25 06:23:27;;;;;;;28.50;16.80;;;;;;;11.38;67.84;100190.77;110092;1235;70497;-67
2023/03/25 06:25:57;;;;;;;29.10;18.00;;;;;;;11.48;67.53;100189.94;110099;1236;74109;-68
2023/03/25 06:28:26;;;;;;;25.70;15.70;;;;;;;11.54;67.56;100190.98;110303;1235;61338;-75
2023/03/25 06:30:55;;;;;;;30.00;17.90;;;;;;;11.68;67.27;100193.59;110316;1235;61734;-73
2023/03/25 06:33:24;;;;;;;35.20;18.40;;;;;;;11.80;66.99;100192.05;110230;1235;65898;-72
2023/03/25 06:36:17;;;;;;;29.10;16.30;;;;;;;12.01;66.51;100186.97;110226;1234;62204;-71
2023/03/25 06:38:49;;;;;;;33.80;17.30;;;;;;;12.21;65.75;100180.55;110312;1235;59186;-73
2023/03/25 06:41:24;;;;;;;31.80;15.90;;;;;;;12.38;65.31;100178.33;109969;1241;73378;-73
2023/03/25 06:44:11;;;;;;;28.80;15.50;;;;;;;12.56;64.46;100177.64;110007;1239;61560;-73
2023/03/25 06:46:46;;;;;;;25.20;16.30;;;;;;;12.70;63.95;100176.49;110234;1234;58564;-71
2023/03/25 06:49:57;;;;;;;27.00;16.50;;;;;;;12.84;63.25;100173.52;110357;1235;74354;-76
2023/03/25 06:52:26;;;;;;;26.70;15.90;;;;;;;12.99;63.03;100169.40;110207;1235;63297;-72
2023/03/25 06:54:55;;;;;;;27.60;16.10;;;;;;;13.13;62.49;100155.95;110316;1235;68627;-72
2023/03/25 06:57:24;;;;;;;31.60;17.00;;;;;;;13.19;62.33;100152.10;110062;1235;62411;-74
2023/03/25 06:59:53;;;;;;;33.90;16.80;;;;;;;13.32;61.82;100159.16;110171;1235;60494;-74
2023/03/25 07:02:22;;;;;;;28.50;15.70;;;;;;;13.34;61.35;100157.44;110182;1234;61618;-74
2023/03/25 07:04:50;;;;;;;26.50;16.20;;;;;;;13.42;61.58;100154.08;110244;1235;75219;-74
2023/03/25 07:07:19;;;;;;;25.70;16.20;;;;;;;13.61;60.61;100150.38;110352;1234;71072;-73
2023/03/25 07:09:53;;;;;;;24.80;16.30;;;;;;;13.73;59.99;100152.15;110286;1235;59201;-73
2023/03/25 07:12:23;;;;;;;23.70;16.00;;;;;;;13.82;59.67;100144.52;109933;1235;73831;-72
2023/03/25 07:14:54;;;;;;;30.90;16.30;;;;;;;13.90;59.32;100159.30;110224;1237;58511;-75
2023/03/25 07:17:23;;;;;;;27.90;16.80;;;;;;;13.83;59.38;100161.77;109965;1235;61188;-71
2023/03/25 07:19:52;;;;;;;24.40;15.50;;;;;;;13.99;59.02;100160.08;110341;1235;74918;-74
2023/03/25 07:22:20;;;;;;;26.10;16.30;;;;;;;14.13;58.71;100153.62;110253;1235;73244;-72
2023/03/25 07:24:51;;;;;;;31.20;16.40;;;;;;;14.53;58.26;100145.02;110301;1235;61370;-77
2023/03/25 07:27:20;;;;;;;28.40;17.20;;;;;;;14.89;57.26;100132.74;110319;1236;73777;-73
2023/03/25 07:30:08;;;;;;;24.40;16.40;;;;;;;15.34;56.07;100127.89;110350;1238;58303;-74
2023/03/25 07:32:37;;;;;;;24.80;15.50;;;;;;;15.72;53.78;100124.00;110028;1236;364756;-71
2023/03/25 07:35:08;;;;;;;23.30;16.40;;;;;;;15.65;54.41;100116.23;110079;1237;74772;-73
2023/03/25 07:37:37;;;;;;;26.80;16.40;;;;;;;15.79;54.08;100110.23;109950;1238;72023;-74
2023/03/25 07:40:06;;;;;;;21.10;15.40;;;;;;;15.98;53.37;100110.56;110151;1237;60033;-74
2023/03/25 07:42:37;;;;;;;21.80;15.10;;;;;;;16.03;53.10;100115.52;109825;1235;63317;-74
2023/03/25 07:46:01;;;;;;;24.00;15.80;;;;;;;15.94;53.19;100114.43;109381;1244;58438;-75
2023/03/25 07:48:31;;;;;;;20.60;14.70;;;;;;;15.88;52.96;100117.74;109840;1238;60728;-74
2023/03/25 07:51:00;;;;;;;23.20;15.50;;;;;;;15.87;53.00;100117.88;109995;1238;74016;-73
2023/03/25 07:53:28;;;;;;;22.50;16.00;;;;;;;16.09;53.33;100108.39;109974;1236;71948;-74
2023/03/25 07:55:57;;;;;;;26.90;14.90;;;;;;;16.27;52.40;100099.41;110141;1236;59856;-76
2023/03/25 07:58:26;;;;;;;21.80;14.60;;;;;;;16.39;51.86;100093.95;110259;1238;63217;-75
2023/03/25 08:00:56;;;;;;;24.50;14.90;;;;;;;16.60;51.62;100090.60;110006;1239;61317;-77
2023/03/25 08:03:26;;;;;;;22.20;14.90;;;;;;;16.79;51.08;100083.90;109896;1240;58392;-72
2023/03/25 08:05:55;;;;;;;21.20;14.70;;;;;;;17.05;50.61;100077.70;110001;1238;64540;-73
2023/03/25 08:08:24;;;;;;;20.50;14.40;;;;;;;17.17;50.24;100070.23;110112;1237;61660;-71
2023/03/25 08:10:53;;;;;;;23.40;14.00;;;;;;;17.36;49.98;100058.97;110105;1236;59863;-73
2023/03/25 08:13:22;;;;;;;23.60;14.90;;;;;;;17.59;49.46;100042.28;110102;1237;73844;-72
2023/03/25 08:15:51;;;;;;;24.60;14.30;;;;;;;17.69;49.29;100033.13;109956;1238;57855;-72
2023/03/25 08:18:20;;;;;;;19.40;14.40;;;;;;;18.04;48.92;100031.06;109990;1237;61184;-71
2023/03/25 08:20:49;;;;;;;21.60;13.30;;;;;;;17.95;48.35;100023.79;110143;1239;63833;-73
2023/03/25 08:23:19;;;;;;;22.90;14.10;;;;;;;18.07;47.97;100018.86;110214;1239;60899;-73
2023/03/25 08:25:49;;;;;;;21.60;14.80;;;;;;;18.26;47.72;100023.80;110343;1238;69733;-71
2023/03/25 08:28:23;;;;;;;21.70;13.90;;;;;;;18.57;47.36;100025.27;110319;1238;74211;-72
2023/03/25 08:30:54;;;;;;;;;;;;;;;19.06;46.67;100020.53;110325;1236;61301;-71
2023/03/25 08:33:39;;;;;;;26.40;13.80;;;;;;;19.53;45.96;100016.55;110126;1237;57905;-71
2023/03/25 08:36:12;;;;;;;21.60;13.50;;;;;;;19.66;45.11;100019.02;110330;1236;74255;-74
2023/03/25 08:38:41;;;;;;;20.10;12.60;;;;;;;19.85;44.31;100026.42;110364;1237;72192;-72
2023/03/25 08:41:10;;;;;;;27.40;12.70;;;;;;;19.85;43.82;100030.30;110316;1235;59640;-74
2023/03/25 08:43:39;;;;;;;20.40;12.40;;;;;;;19.85;43.68;100026.06;110309;1238;63391;-73
2023/03/25 08:46:08;;;;;;;17.60;11.50;;;;;;;19.73;43.68;100021.63;110357;1238;58196;-74
2023/03/25 08:48:37;;;;;;;23.80;11.20;;;;;;;19.92;43.24;100022.25;110189;1235;60904;-73
2023/03/25 08:51:06;;;;;;;16.40;11.20;;;;;;;20.01;42.50;100019.49;110287;1235;74745;-74
2023/03/25 08:53:35;;;;;;;18.50;10.60;;;;;;;20.18;42.56;100017.88;110408;1235;61860;-76
2023/03/25 08:56:04;;;;;;;16.00;10.90;;;;;;;20.56;41.27;100013.24;110281;1235;70528;-72
2023/03/25 08:58:33;;;;;;;12.30;9.60;;;;;;;20.45;40.88;100013.27;110292;1239;62795;-73
2023/03/25 09:01:03;;;;;;;15.70;10.10;;;;;;;19.74;41.36;100008.86;110325;1235;61272;-73
2023/03/25 09:03:32;;;;;;;19.20;10.00;;;;;;;19.66;41.26;100004.85;110198;1238;59895;-70
2023/03/25 09:06:05;;;;;;;17.30;9.90;;;;;;;19.94;41.11;99997.70;110326;1235;74837;-70
2023/03/25 14:58:45;;;;;;;6.20;3.60;;;;;;;21.16;34.23;99666.48;108306;1248;963501;31
2023/03/25 15:01:18;;;;;;;4.10;3.00;;;;;;;21.09;34.32;99685.78;108927;1237;59098;-72
2023/03/25 15:03:47;;;;;;;5.20;3.60;;;;;;;20.96;34.68;99680.50;108815;1233;59002;-71
2023/03/25 15:06:27;;;;;;;5.30;3.50;;;;;;;20.83;35.05;99678.57;108710;1230;73035;-72
2023/03/25 15:09:00;;;;;;;4.90;3.20;;;;;;;20.71;35.27;99683.05;109712;1233;61674;-69
2023/03/25 15:11:34;;;;;;;6.20;3.70;;;;;;;20.59;35.38;99681.55;108735;1233;59206;-68
2023/03/25 15:14:14;;;;;;;7.10;3.40;;;;;;;20.53;35.71;99679.48;108803;1231;74678;-69
2023/03/25 15:16:48;;;;;;;5.50;3.30;;;;;;;20.45;36.04;99680.38;108641;1235;61814;-68
2023/03/25 15:19:18;;;;;;;6.30;4.00;;;;;;;20.39;36.30;99691.05;108764;1231;61184;-70
2023/03/25 15:22:01;;;;;;;10.50;3.80;;;;;;;20.31;36.71;99700.16;108838;1232;64887;-71
2023/03/25 15:24:37;;;;;;;8.20;3.60;;;;;;;20.20;36.97;99702.65;109022;1231;61085;-68
2023/03/25 15:27:34;;;;;;;6.10;3.60;;;;;;;20.12;37.43;99698.85;108986;1230;59510;-70
2023/03/25 15:30:30;;;;;;;6.40;3.90;;;;;;;20.02;37.94;99701.38;108959;1232;72272;-73
2023/03/25 15:33:28;;;;;;;7.60;3.80;;;;;;;19.90;38.65;99707.80;109011;1232;61414;-73
2023/03/25 15:36:16;;;;;;;7.50;4.30;;;;;;;19.74;39.14;99715.20;109183;1235;61357;-71
2023/03/25 15:39:29;;;;;;;4.10;3.30;;;;;;;19.67;39.49;99719.88;109144;1229;62953;-73
2023/03/25 15:42:24;;;;;;;7.60;4.10;;;;;;;19.50;40.37;99725.97;108961;1235;71904;-71
2023/03/25 15:45:02;;;;;;;5.30;4.00;;;;;;;19.37;40.46;99726.06;108979;1228;70618;-71
2023/03/25 15:48:03;;;;;;;5.70;3.70;;;;;;;19.25;41.11;99734.11;109202;1229;73779;-70
2023/03/25 15:51:13;;;;;;;5.80;3.50;;;;;;;19.10;41.69;99736.67;109006;1231;60962;-72
2023/03/25 15:53:58;;;;;;;5.80;3.50;;;;;;;18.98;42.47;99739.90;110405;1229;60623;-69
2023/03/25 15:56:36;;;;;;;5.70;3.60;;;;;;;18.86;43.10;99741.61;108985;1227;73734;-73
2023/03/25 15:59:18;;;;;;;8.10;4.00;;;;;;;18.69;43.57;99741.73;110421;1229;61374;-69
2023/03/25 16:01:50;;;;;;;7.40;4.20;;;;;;;18.62;44.36;99750.70;109013;1231;59748;-69
2023/03/25 16:04:46;;;;;;;9.40;4.90;;;;;;;18.47;44.85;99748.02;109150;1232;63970;-73
2023/03/25 16:07:17;;;;;;;14.70;5.10;;;;;;;18.29;45.54;99750.36;109264;1229;58904;-73
2023/03/25 16:09:50;;;;;;;5.20;3.70;;;;;;;18.16;46.01;99756.36;109222;1229;61212;-71
2023/03/25 16:12:24;;;;;;;5.00;3.70;;;;;;;17.97;47.36;99757.60;108907;1236;73589;-70
2023/03/25 16:14:52;;;;;;;6.90;4.00;;;;;;;17.82;48.12;99763.97;109149;1236;72537;-71
2023/03/25 16:17:28;;;;;;;6.80;4.20;;;;;;;17.67;48.83;99765.27;109157;1235;70608;-70
2023/03/25 16:19:58;;;;;;;11.60;6.00;;;;;;;17.49;50.08;99772.02;109071;1230;62442;-70
2023/03/25 16:22:33;;;;;;;6.60;4.30;;;;;;;17.28;50.72;99775.52;109210;1232;61167;-72
2023/03/25 16:25:34;;;;;;;6.80;4.30;;;;;;;17.14;51.06;99782.00;108796;1234;62089;-71
2023/03/25 16:28:25;;;;;;;6.40;3.70;;;;;;;17.01;52.11;99783.90;108932;1227;74680;-69
2023/03/25 16:30:54;;;;;;;6.00;3.70;;;;;;;16.84;52.91;99793.44;109065;1230;61388;-70
2023/03/25 16:33:36;;;;;;;8.60;5.80;;;;;;;16.71;53.94;99795.70;109055;1236;59898;-71
2023/03/25 16:36:19;;;;;;;5.60;4.30;;;;;;;16.54;54.25;99798.09;109013;1227;74707;-71
2023/03/25 16:38:47;;;;;;;;;;;;;;;16.41;54.80;99800.10;109038;1228;60226;-72
2023/03/25 16:41:15;;;;;;;6.40;3.60;;;;;;;16.31;54.46;99794.04;109156;1236;62551;-71
2023/03/25 16:43:43;;;;;;;6.10;3.90;;;;;;;16.27;54.91;99796.61;109188;1229;74088;-71
2023/03/25 16:46:15;;;;;;;7.80;4.90;;;;;;;16.21;54.96;99796.07;109005;1227;73407;-71
2023/03/25 16:48:51;;;;;;;9.40;4.90;;;;;;;16.15;55.07;99793.65;109200;1228;59576;-72
2023/03/25 16:51:34;;;;;;;6.10;4.00;;;;;;;16.12;55.77;99792.20;109189;1229;63442;-70
2023/03/25 16:54:09;;;;;;;11.30;5.80;;;;;;;16.10;55.85;99788.38;109170;1231;59114;-71
2023/03/25 16:56:39;;;;;;;9.20;5.80;;;;;;;16.10;55.05;99786.98;109077;1231;60377;-71
2023/03/25 16:59:26;;;;;;;9.30;4.80;;;;;;;16.09;55.59;99780.29;109157;1232;65214;-71
2023/03/25 17:01:57;;;;;;;9.80;6.50;;;;;;;16.08;56.29;99770.91;109264;1227;72420;-71
2023/03/25 17:04:40;;;;;;;9.40;6.10;;;;;;;16.07;55.83;99765.55;109201;1231;60258;-70
2023/03/25 17:07:19;;;;;;;9.30;5.30;;;;;;;16.05;56.75;99766.65;109304;1230;62354;-71
2023/03/25 17:09:53;;;;;;;11.40;5.00;;;;;;;16.06;56.51;99795.75;109204;1233;62054;-70
2023/03/25 17:12:23;;;;;;;12.20;5.70;;;;;;;16.09;56.50;99814.18;109155;1232;59125;-71
2023/03/25 17:14:57;;;;;;;10.10;4.90;;;;;;;16.11;56.60;99823.63;108963;1233;63394;-70
2023/03/25 17:17:40;;;;;;;9.40;4.70;;;;;;;16.13;57.51;99823.03;109309;1227;71662;-70
2023/03/25 17:20:18;;;;;;;9.10;4.10;;;;;;;16.14;56.26;99823.95;109148;1231;60344;-72
2023/03/25 17:23:15;;;;;;;7.40;4.40;;;;;;;16.11;55.75;99823.19;109149;1236;64129;-72
2023/03/25 17:25:59;;;;;;;8.60;4.50;;;;;;;16.09;55.91;99820.42;109064;1227;58923;-72
2023/03/25 17:28:38;;;;;;;12.40;5.20;;;;;;;16.09;55.38;99824.18;109349;1233;57487;-72
2023/03/25 17:31:23;;;;;;;7.90;4.70;;;;;;;16.09;55.14;99826.30;109347;1236;63111;-73
2023/03/25 17:33:57;;;;;;;8.80;4.80;;;;;;;16.10;54.99;99828.30;109248;1227;61054;-73
2023/03/25 17:36:26;;;;;;;7.40;4.30;;;;;;;16.09;54.79;99830.64;109156;1235;69612;-72
2023/03/25 17:38:56;;;;;;;6.10;3.90;;;;;;;16.10;54.61;99831.65;109227;1229;73676;-70
2023/03/25 17:41:36;;;;;;;8.10;4.10;;;;;;;16.09;54.44;99829.29;109166;1230;60842;-72